Time;durP1;ratioP1;P1;durP2;ratioP2;P2;SDS_P1;SDS_P2;PMS_P1;PMS_P2;Temp;Humidity;BMP_temperature;BMP_pressure;BME280_temperature;BME280_humidity;BME280_pressure;Samples;Min_cycle;Max_cycle;Signal;HPM_P1;HPM_P2
2022/02/01 00:01:57;;;;;;;22.15;5.72;;;;;;;3.87;80.98;100526.94;4995613;28;20078;-64
2022/02/01 00:04:53;;;;;;;13.98;4.32;;;;;;;3.89;80.51;100526.19;4996809;28;20065;-64
2022/02/01 00:10:04;;;;;;;11.77;4.57;;;;;;;3.89;81.21;100520.19;4996807;28;20034;-63
2022/02/01 00:37:21;;;;;;;13.52;5.53;;;;;;;3.86;80.86;100523.47;4996283;28;20121;-63
2022/02/01 00:39:56;;;;;;;25.50;5.75;;;;;;;3.86;81.48;100532.84;4996291;28;20097;-63
2022/02/01 00:42:26;;;;;;;22.05;5.93;;;;;;;3.84;80.44;100542.16;4996116;28;20039;-64
2022/02/01 00:44:54;;;;;;;16.77;5.28;;;;;;;3.85;80.96;100534.53;4996077;28;20034;-64
2022/02/01 00:47:25;;;;;;;23.52;6.78;;;;;;;3.82;80.59;100539.50;4994824;28;20058;-63
2022/02/01 00:49:56;;;;;;;26.13;6.43;;;;;;;3.82;80.80;100518.97;4978307;28;20057;-63
2022/02/01 00:52:29;;;;;;;18.35;4.88;;;;;;;3.83;80.56;100532.69;4994951;28;20096;-64
2022/02/01 00:54:59;;;;;;;17.27;5.95;;;;;;;3.83;80.73;100530.13;4994795;28;20529;-64
2022/02/01 00:57:30;;;;;;;21.52;6.68;;;;;;;3.82;80.89;100524.09;4994815;28;20030;-64
2022/02/01 01:00:05;;;;;;;17.65;5.10;;;;;;;3.82;80.75;100518.97;4978122;28;20035;-64
2022/02/01 01:02:33;;;;;;;16.23;5.88;;;;;;;3.80;80.33;100531.72;4994156;28;20043;-64
2022/02/01 01:05:05;;;;;;;15.02;5.13;;;;;;;3.83;80.56;100541.25;4995731;28;20485;-64
2022/02/01 01:07:33;;;;;;;20.05;5.15;;;;;;;3.81;80.45;100540.31;4995809;28;20458;-64
2022/02/01 01:10:02;;;;;;;16.58;6.35;;;;;;;3.80;80.61;100543.69;4994285;28;20121;-63
2022/02/01 01:12:30;;;;;;;13.05;4.90;;;;;;;3.78;80.36;100540.16;4995293;28;20034;-64
2022/02/01 01:44:50;;;;;;;;;;;;;;;3.61;80.16;100546.97;4993978;28;20488;-63
2022/02/01 01:53:11;;;;;;;22.35;5.43;;;;;;;3.60;80.37;100512.78;4994664;28;20042;-64
2022/02/01 01:55:40;;;;;;;18.30;4.38;;;;;;;3.62;80.95;100520.53;4977277;28;20038;-63
2022/02/01 01:58:09;;;;;;;25.77;6.45;;;;;;;3.61;81.09;100524.78;4993689;28;20038;-63
2022/02/01 02:00:58;;;;;;;13.73;4.07;;;;;;;3.63;80.29;100538.56;4993459;28;20100;-63
2022/02/01 02:03:24;;;;;;;11.82;4.47;;;;;;;3.63;81.20;100547.91;4994864;28;20050;-63
2022/02/01 02:05:50;;;;;;;9.07;4.18;;;;;;;3.61;81.07;100531.56;4977237;28;20037;-63
2022/02/01 02:08:16;;;;;;;11.32;4.78;;;;;;;3.61;80.95;100534.13;4993079;28;20030;-64
2022/02/01 02:15:59;;;;;;;13.00;5.10;;;;;;;3.60;80.37;100533.28;4992737;28;20125;-64
2022/02/01 02:18:27;;;;;;;15.02;4.28;;;;;;;3.61;80.64;100535.03;4994637;28;20482;-64
2022/02/01 02:20:59;;;;;;;13.05;4.70;;;;;;;3.64;80.17;100547.13;4994012;28;20042;-64
2022/02/01 02:23:30;;;;;;;9.23;5.10;;;;;;;3.66;80.64;100543.81;4977279;28;20181;-64
2022/02/01 02:25:57;;;;;;;9.43;3.63;;;;;;;3.69;80.80;100553.38;4993150;28;20475;-64
2022/02/01 02:28:26;;;;;;;10.15;4.05;;;;;;;3.70;80.81;100549.13;4992849;28;20041;-64
2022/02/01 02:30:54;;;;;;;10.57;3.63;;;;;;;3.72;80.96;100529.56;4976686;28;20046;-64
2022/02/01 02:33:22;;;;;;;14.63;5.22;;;;;;;3.73;80.60;100544.16;4994096;28;20046;-64
2022/02/01 02:35:56;;;;;;;12.18;3.97;;;;;;;3.73;80.71;100545.06;4994173;28;20038;-63
2022/02/01 02:38:45;;;;;;;8.68;4.35;;;;;;;3.75;80.45;100552.81;4977516;28;20453;-63
2022/02/01 02:46:33;;;;;;;12.05;4.50;;;;;;;3.72;80.80;100540.72;4994274;28;20031;-64
2022/02/01 02:48:58;;;;;;;10.55;4.93;;;;;;;3.73;80.79;100549.28;4993963;28;20069;-64
2022/02/01 02:51:26;;;;;;;14.25;3.92;;;;;;;3.70;80.58;100547.44;4993924;28;20042;-63
2022/02/01 02:53:52;;;;;;;12.80;3.60;;;;;;;3.71;81.21;100549.22;4993984;28;20482;-64
2022/02/01 02:56:17;;;;;;;11.57;3.70;;;;;;;3.70;80.98;100556.81;4993870;28;20027;-64
2022/02/01 02:58:43;;;;;;;11.07;4.32;;;;;;;3.71;80.38;100548.31;4992554;28;20181;-64
2022/02/01 03:01:08;;;;;;;12.55;3.72;;;;;;;3.71;80.80;100554.34;4993738;28;20398;-63
2022/02/01 03:03:36;;;;;;;12.13;3.40;;;;;;;3.73;80.46;100545.06;4994054;28;20034;-63
2022/02/01 03:06:08;;;;;;;16.30;5.55;;;;;;;3.72;80.32;100548.41;4993993;28;20042;-63
2022/02/01 03:08:36;;;;;;;9.18;4.22;;;;;;;3.72;81.04;100537.25;4993738;28;20037;-63
2022/02/01 03:11:12;;;;;;;9.00;3.75;;;;;;;3.71;80.56;100535.50;4992837;28;20039;-63
2022/02/01 03:13:41;;;;;;;14.40;4.45;;;;;;;3.67;80.51;100537.03;4992965;28;20043;-64
2022/02/01 03:16:28;;;;;;;6.57;2.97;;;;;;;3.66;80.47;100533.56;4993938;28;20045;-63
2022/02/01 03:21:39;;;;;;;8.40;4.03;;;;;;;3.69;80.76;100555.03;4993778;28;20031;-63
2022/02/01 03:24:05;;;;;;;10.82;5.20;;;;;;;3.69;81.14;100552.47;4993733;28;20049;-64
2022/02/01 03:26:30;;;;;;;11.48;3.53;;;;;;;3.69;80.51;100538.00;4994097;28;20030;-63
2022/02/01 03:28:56;;;;;;;13.98;4.75;;;;;;;3.69;80.73;100525.19;4997494;28;20078;-63
2022/02/01 03:31:21;;;;;;;10.45;3.33;;;;;;;3.70;80.18;100524.38;4997283;28;20041;-63
2022/02/01 03:33:50;;;;;;;12.73;3.90;;;;;;;3.71;80.62;100525.25;4997349;28;20046;-63
2022/02/01 03:36:18;;;;;;;16.13;4.68;;;;;;;3.71;80.97;100530.38;4996003;28;20544;-63
2022/02/01 03:38:47;;;;;;;12.82;4.80;;;;;;;3.71;80.85;100535.50;4997080;28;20092;-63
2022/02/01 03:41:13;;;;;;;9.10;4.25;;;;;;;3.71;80.48;100531.28;4997225;28;20034;-63
2022/02/01 03:43:44;;;;;;;15.95;5.03;;;;;;;3.70;80.59;100526.03;4996380;28;20035;-63
2022/02/01 03:46:12;;;;;;;15.52;3.92;;;;;;;3.72;80.99;100534.69;4997160;28;20068;-63
2022/02/01 03:48:40;;;;;;;9.90;3.88;;;;;;;3.70;81.01;100526.03;4995657;28;20104;-63
2022/02/01 03:51:05;;;;;;;9.65;3.75;;;;;;;3.71;81.06;100512.44;4996283;28;20046;-63
2022/02/01 03:53:33;;;;;;;9.27;3.35;;;;;;;3.71;81.04;100500.50;4996957;28;20030;-64
2022/02/01 03:56:01;;;;;;;10.63;4.53;;;;;;;3.72;80.61;100503.94;4996958;28;20042;-63
2022/02/01 03:58:32;;;;;;;15.70;5.57;;;;;;;3.69;80.33;100496.97;4979773;28;20177;-64
2022/02/01 04:01:01;;;;;;;12.05;3.80;;;;;;;3.69;80.84;100494.41;4996835;28;20038;-63
2022/02/01 04:03:26;;;;;;;14.63;4.28;;;;;;;3.70;80.91;100490.16;4997278;28;20046;-64
2022/02/01 04:05:58;;;;;;;11.00;3.70;;;;;;;3.69;80.87;100467.88;4996751;28;20042;-63
2022/02/01 04:08:26;;;;;;;13.15;4.00;;;;;;;3.69;80.29;100460.19;4995509;28;20034;-64
2022/02/01 04:10:53;;;;;;;8.30;3.55;;;;;;;3.66;80.29;100458.38;4996472;28;20437;-63
2022/02/01 04:13:20;;;;;;;13.27;4.53;;;;;;;3.66;80.97;100458.38;4979230;28;20482;-63
2022/02/01 04:15:46;;;;;;;9.43;4.30;;;;;;;3.65;80.69;100467.75;4979309;28;20050;-63
2022/02/01 04:18:12;;;;;;;13.43;4.35;;;;;;;3.66;80.77;100464.34;4995417;28;20042;-63
2022/02/01 04:20:38;;;;;;;11.07;3.97;;;;;;;3.66;80.56;100466.91;4995351;28;20046;-63
2022/02/01 04:23:04;;;;;;;18.75;4.30;;;;;;;3.65;80.53;100456.59;4996481;28;20034;-63
2022/02/01 04:25:31;;;;;;;10.70;4.50;;;;;;;3.65;80.72;100454.03;4996358;28;20034;-64
2022/02/01 04:27:57;;;;;;;12.32;4.47;;;;;;;3.66;81.08;100443.84;4979073;28;20042;-63
2022/02/01 04:30:23;;;;;;;10.55;4.35;;;;;;;3.64;80.46;100442.91;4995020;28;20089;-63
2022/02/01 04:32:55;;;;;;;11.40;3.85;;;;;;;3.64;80.92;100452.28;4995451;28;20445;-63
2022/02/01 04:35:29;;;;;;;15.55;4.55;;;;;;;3.62;80.69;100462.47;4979158;28;20042;-63
2022/02/01 04:37:57;;;;;;;9.10;4.25;;;;;;;3.61;80.67;100455.56;4995894;28;20450;-63
2022/02/01 04:40:27;;;;;;;10.30;3.83;;;;;;;3.62;80.50;100465.03;4978676;28;20035;-64
2022/02/01 04:42:56;;;;;;;10.85;4.30;;;;;;;3.63;80.60;100461.66;4978585;28;20035;-64
2022/02/01 04:45:24;;;;;;;19.40;4.40;;;;;;;3.63;80.85;100460.75;4978604;28;20501;-64
2022/02/01 04:47:55;;;;;;;11.00;4.75;;;;;;;3.63;81.23;100473.59;4978465;28;20045;-64
2022/02/01 04:50:26;;;;;;;19.67;4.93;;;;;;;3.64;80.64;100468.56;4996032;28;20065;-64
2022/02/01 04:52:54;;;;;;;10.82;3.88;;;;;;;3.66;80.46;100471.19;4995842;28;20034;-64
2022/02/01 04:55:24;;;;;;;17.63;4.97;;;;;;;3.64;81.14;100459.97;4995844;28;20034;-64
2022/02/01 04:57:56;;;;;;;12.55;3.85;;;;;;;3.62;81.15;100457.34;4978364;28;20035;-64
2022/02/01 05:00:27;;;;;;;10.80;4.88;;;;;;;3.63;80.44;100453.97;4978733;28;20405;-63
2022/02/01 05:02:55;;;;;;;8.32;3.92;;;;;;;3.64;80.64;100457.41;4994614;28;20100;-64
2022/02/01 05:05:29;;;;;;;10.75;5.03;;;;;;;3.62;80.63;100447.09;4978193;28;20482;-63
2022/02/01 05:08:04;;;;;;;11.27;4.60;;;;;;;3.62;80.52;100444.53;4995547;28;20042;-63
2022/02/01 05:10:32;;;;;;;12.15;4.97;;;;;;;3.60;80.37;100455.47;4993894;28;20115;-63
2022/02/01 05:13:18;;;;;;;11.15;5.05;;;;;;;3.60;80.82;100441.00;4994036;28;20034;-63
2022/02/01 05:15:51;;;;;;;15.60;4.35;;;;;;;3.60;80.83;100458.94;4995857;28;20035;-63
2022/02/01 05:18:21;;;;;;;7.50;4.07;;;;;;;3.59;81.06;100459.75;4995500;28;20034;-63
2022/02/01 05:23:22;;;;;;;11.63;5.05;;;;;;;3.62;80.72;100459.00;4994041;28;20405;-64
2022/02/01 05:25:51;;;;;;;12.50;5.00;;;;;;;3.62;80.54;100453.88;4977682;28;20485;-64
2022/02/01 05:28:19;;;;;;;9.40;5.03;;;;;;;3.62;80.86;100447.09;4995030;28;20066;-64
2022/02/01 05:30:45;;;;;;;19.63;5.55;;;;;;;3.62;80.89;100454.78;4977744;28;20030;-64
2022/02/01 05:33:13;;;;;;;19.17;5.93;;;;;;;3.62;80.84;100453.88;4995077;28;20122;-64
2022/02/01 05:35:41;;;;;;;19.63;7.32;;;;;;;3.61;81.14;100442.75;4995142;28;20039;-64
2022/02/01 05:38:10;;;;;;;17.48;5.95;;;;;;;3.61;80.98;100441.84;4995046;28;20045;-64
2022/02/01 05:40:38;;;;;;;15.65;5.35;;;;;;;3.62;80.25;100433.38;4994982;28;20133;-64
2022/02/01 05:43:12;;;;;;;16.20;5.95;;;;;;;3.61;80.71;100429.94;4994942;28;20034;-64
2022/02/01 05:45:42;;;;;;;12.35;5.10;;;;;;;3.61;80.96;100426.47;4993652;28;20038;-64
2022/02/01 05:48:10;;;;;;;15.23;5.90;;;;;;;3.60;80.65;100438.44;4977334;28;20545;-64
2022/02/01 05:50:40;;;;;;;15.57;6.38;;;;;;;3.60;80.79;100427.28;4976605;28;20034;-64
2022/02/01 05:53:06;;;;;;;14.50;6.05;;;;;;;3.60;80.38;100419.59;4977709;28;20069;-64
2022/02/01 05:55:35;;;;;;;13.82;5.60;;;;;;;3.57;80.82;100425.44;4977318;28;20035;-64
2022/02/01 05:58:04;;;;;;;20.40;7.78;;;;;;;3.57;80.78;100430.56;4994674;28;20042;-64
2022/02/01 06:00:33;;;;;;;21.58;7.65;;;;;;;3.57;80.94;100399.81;4993687;28;20045;-64
2022/02/01 06:03:00;;;;;;;30.92;9.82;;;;;;;3.56;80.80;100403.19;4994770;28;20050;-64
2022/02/01 06:05:27;;;;;;;19.10;7.82;;;;;;;3.57;80.73;100401.53;4994491;28;20406;-64
2022/02/01 06:07:53;;;;;;;27.30;8.82;;;;;;;3.56;80.83;100394.63;4977276;28;20045;-63
2022/02/01 06:10:21;;;;;;;32.22;9.95;;;;;;;3.54;80.77;100397.09;4994618;28;20062;-64
2022/02/01 06:12:48;;;;;;;25.42;9.07;;;;;;;3.54;81.01;100391.97;4994483;28;20066;-64
2022/02/01 06:15:23;;;;;;;24.90;8.30;;;;;;;3.53;80.81;100392.78;4993493;28;20038;-64
2022/02/01 06:17:48;;;;;;;24.92;9.27;;;;;;;3.54;80.66;100379.16;4994741;28;20038;-63
2022/02/01 06:20:17;;;;;;;25.70;8.18;;;;;;;3.55;80.89;100367.25;4993266;28;20042;-63
2022/02/01 06:22:45;;;;;;;21.23;9.07;;;;;;;3.53;81.19;100372.28;4976802;28;20038;-63
2022/02/01 06:25:14;;;;;;;26.48;8.90;;;;;;;3.54;80.49;100365.47;4994285;28;20038;-64
2022/02/01 06:27:39;;;;;;;27.85;9.73;;;;;;;3.52;80.77;100355.13;4976580;28;20057;-63
2022/02/01 06:30:07;;;;;;;25.00;10.32;;;;;;;3.53;80.55;100362.00;4993139;28;20557;-64
2022/02/01 06:32:40;;;;;;;24.50;9.20;;;;;;;3.53;81.13;100368.84;4976751;28;20042;-64
2022/02/01 06:35:07;;;;;;;20.98;9.02;;;;;;;3.53;81.30;100364.59;4976818;28;20040;-63
2022/02/01 06:37:33;;;;;;;26.38;9.90;;;;;;;3.52;80.17;100350.00;4976643;28;20042;-63
2022/02/01 06:39:59;;;;;;;23.65;9.00;;;;;;;3.51;80.49;100353.38;4994039;28;20045;-63
2022/02/01 06:42:27;;;;;;;30.13;10.05;;;;;;;3.51;81.09;100343.13;4994068;28;20042;-63
2022/02/01 06:44:55;;;;;;;41.05;11.95;;;;;;;3.52;80.54;100349.13;4993118;28;20038;-63
2022/02/01 06:47:21;;;;;;;25.95;9.80;;;;;;;3.53;80.82;100336.38;4993931;28;20038;-63
2022/02/01 06:49:51;;;;;;;29.65;10.60;;;;;;;3.53;80.81;100332.97;4993866;28;20117;-63
2022/02/01 06:52:19;;;;;;;26.60;9.52;;;;;;;3.50;80.91;100314.06;4976674;28;20065;-63
2022/02/01 06:54:50;;;;;;;30.05;11.52;;;;;;;3.50;80.89;100333.69;4994174;28;20042;-63
2022/02/01 06:57:15;;;;;;;26.63;10.48;;;;;;;3.49;81.06;100326.81;4993060;28;20092;-63
2022/02/01 06:59:43;;;;;;;30.38;11.45;;;;;;;3.48;80.46;100318.22;4976532;28;20046;-63
2022/02/01 07:02:08;;;;;;;26.98;11.27;;;;;;;3.49;80.35;100334.50;4995439;28;20054;-63
2022/02/01 07:04:34;;;;;;;21.70;10.25;;;;;;;3.47;80.79;100315.59;4998271;28;20466;-63
2022/02/01 07:07:08;;;;;;;38.08;11.32;;;;;;;3.48;81.08;100302.84;4998091;28;20504;-63
2022/02/01 07:09:35;;;;;;;22.13;10.13;;;;;;;3.47;80.71;100310.47;4980750;28;20030;-63
2022/02/01 07:12:03;;;;;;;24.65;9.93;;;;;;;3.48;81.06;100312.25;4996504;28;20045;-63
2022/02/01 07:14:31;;;;;;;24.73;11.23;;;;;;;3.48;81.19;100312.25;4980691;28;20398;-63
2022/02/01 07:16:59;;;;;;;27.02;10.77;;;;;;;3.47;80.66;100305.34;4997655;28;20161;-63
2022/02/01 07:19:28;;;;;;;28.88;11.05;;;;;;;3.46;80.61;100304.47;4996714;28;20042;-63
2022/02/01 07:21:53;;;;;;;31.20;9.93;;;;;;;3.47;81.20;100315.59;4997520;28;20074;-63
2022/02/01 07:24:28;;;;;;;23.27;10.13;;;;;;;3.49;80.93;100308.88;4997297;28;20113;-63
2022/02/01 07:26:58;;;;;;;20.83;9.23;;;;;;;3.47;81.34;100298.53;4980391;28;20034;-63
2022/02/01 07:29:29;;;;;;;26.45;11.32;;;;;;;3.47;81.24;100295.09;4980270;28;20048;-63
2022/02/01 07:32:00;;;;;;;33.08;10.80;;;;;;;3.47;80.92;100287.41;4996268;28;20038;-63
2022/02/01 07:34:30;;;;;;;22.42;8.45;;;;;;;3.44;80.95;100277.88;4997309;28;20046;-63
2022/02/01 07:36:56;;;;;;;29.88;11.88;;;;;;;3.45;80.99;100277.06;4996471;28;20047;-63
2022/02/01 07:39:21;;;;;;;20.00;9.18;;;;;;;3.46;80.67;100283.09;4997416;28;20038;-63
2022/02/01 07:41:49;;;;;;;18.13;9.05;;;;;;;3.47;80.78;100290.84;4997267;28;20034;-63
2022/02/01 07:44:19;;;;;;;20.08;9.10;;;;;;;3.47;81.08;100282.28;4996042;28;20042;-63
2022/02/01 07:46:47;;;;;;;22.40;9.63;;;;;;;3.46;81.00;100278.81;4979682;28;20034;-64
2022/02/01 07:49:21;;;;;;;24.63;8.88;;;;;;;3.47;81.26;100269.47;4979661;28;20126;-64
2022/02/01 07:51:49;;;;;;;25.83;9.40;;;;;;;3.47;81.26;100274.59;4996111;28;20034;-64
2022/02/01 07:54:20;;;;;;;20.85;8.68;;;;;;;3.47;80.96;100277.16;4995770;28;20038;-64
2022/02/01 07:56:51;;;;;;;20.25;9.43;;;;;;;3.48;80.84;100276.38;4997098;28;20042;-64
2022/02/01 07:59:21;;;;;;;18.85;8.35;;;;;;;3.50;81.09;100287.56;4996887;28;20073;-64
2022/02/01 08:01:52;;;;;;;19.88;9.57;;;;;;;3.48;80.66;100282.34;4996380;28;20145;-63
2022/02/01 08:04:20;;;;;;;20.58;9.10;;;;;;;3.48;81.04;100282.34;4979926;28;20034;-64
2022/02/01 08:06:48;;;;;;;16.13;8.18;;;;;;;3.47;81.27;100272.91;4995670;28;20049;-64
2022/02/01 08:09:22;;;;;;;15.85;8.35;;;;;;;3.47;81.12;100272.03;4979847;28;20041;-64
2022/02/01 08:11:50;;;;;;;;;;;;;;;3.46;81.45;100281.41;4979808;28;20042;-65
2022/02/01 08:17:26;;;;;;;19.30;8.80;;;;;;;3.46;81.36;100288.22;4960339;28;20051;-63
2022/02/01 08:20:02;;;;;;;20.15;8.50;;;;;;;3.47;80.62;100270.34;4995225;28;20038;-63
2022/02/01 08:22:38;;;;;;;18.30;7.88;;;;;;;3.46;81.10;100273.72;4996502;28;20041;-63
2022/02/01 08:25:12;;;;;;;16.67;8.15;;;;;;;3.47;81.09;100277.16;4978855;28;20482;-63
2022/02/01 08:27:39;;;;;;;15.93;7.85;;;;;;;3.49;81.43;100260.19;4995314;28;20414;-63
2022/02/01 08:30:11;;;;;;;12.93;7.78;;;;;;;3.49;81.15;100245.66;4979171;28;20045;-64
2022/02/01 08:32:40;;;;;;;13.50;8.13;;;;;;;3.49;81.06;100243.09;4995210;28;20393;-63
2022/02/01 08:35:09;;;;;;;19.38;7.18;;;;;;;3.49;81.29;100232.00;4994979;28;20397;-65
2022/02/01 08:37:39;;;;;;;15.13;8.27;;;;;;;3.50;80.69;100233.75;4996433;28;20030;-63
2022/02/01 08:40:08;;;;;;;14.48;7.13;;;;;;;3.51;80.85;100227.78;4996374;28;20039;-63
2022/02/01 08:42:35;;;;;;;13.27;6.65;;;;;;;3.52;81.01;100211.59;4978682;28;20512;-63
2022/02/01 08:45:06;;;;;;;13.77;6.97;;;;;;;3.52;80.84;100226.13;4978656;28;20097;-63
2022/02/01 08:47:34;;;;;;;13.27;7.68;;;;;;;3.52;81.39;100231.25;4994625;28;20041;-64
2022/02/01 08:49:59;;;;;;;11.27;6.93;;;;;;;3.53;81.23;100222.75;4994676;28;20039;-63
2022/02/01 08:52:40;;;;;;;14.02;7.18;;;;;;;3.52;81.18;100209.03;4995821;28;20053;-64
2022/02/01 08:55:19;;;;;;;11.18;6.95;;;;;;;3.52;81.08;100206.47;4978717;28;20034;-64
2022/02/01 08:57:50;;;;;;;8.90;6.40;;;;;;;3.53;81.17;100192.00;4978535;28;20031;-64
2022/02/01 09:00:21;;;;;;;18.08;7.07;;;;;;;3.52;81.75;100191.09;4978329;28;20093;-64
2022/02/01 09:02:52;;;;;;;11.88;5.72;;;;;;;3.54;81.25;100194.63;4978480;28;20042;-64
2022/02/01 09:05:20;;;;;;;12.00;8.00;;;;;;;3.54;81.59;100179.25;4978326;28;20035;-64
2022/02/01 09:07:48;;;;;;;12.65;6.18;;;;;;;3.54;80.92;100178.38;4995717;28;20099;-64
2022/02/01 09:10:19;;;;;;;10.55;7.03;;;;;;;3.54;81.34;100189.50;4978060;28;20039;-64
2022/02/01 09:12:46;;;;;;;11.88;6.40;;;;;;;3.54;81.17;100189.50;4994888;28;20035;-64
2022/02/01 09:15:15;;;;;;;14.23;6.22;;;;;;;3.55;81.28;100192.97;4995510;28;20093;-64
2022/02/01 09:17:44;;;;;;;14.40;7.72;;;;;;;3.56;81.30;100200.69;4994419;28;20030;-64
2022/02/01 09:20:19;;;;;;;15.30;6.43;;;;;;;3.55;80.86;100206.63;4977968;28;20038;-64
2022/02/01 09:22:44;;;;;;;12.13;6.40;;;;;;;3.55;80.95;100192.97;4994225;28;20035;-63
2022/02/01 09:25:17;;;;;;;9.75;6.43;;;;;;;3.57;81.46;100171.72;4995231;28;20046;-64
2022/02/01 09:27:48;;;;;;;13.57;6.15;;;;;;;3.57;81.22;100169.16;4995322;28;20498;-63
2022/02/01 09:30:18;;;;;;;12.05;6.15;;;;;;;3.57;81.81;100164.00;4977878;28;20486;-63
2022/02/01 09:32:46;;;;;;;10.75;6.75;;;;;;;3.58;81.31;100150.41;4994108;28;20065;-63
2022/02/01 09:35:18;;;;;;;10.93;5.82;;;;;;;3.58;81.08;100141.84;4977736;28;20498;-63
2022/02/01 09:37:49;;;;;;;9.73;5.88;;;;;;;3.58;81.19;100140.16;4977709;28;20038;-63
2022/02/01 09:40:14;;;;;;;6.43;5.30;;;;;;;3.59;81.31;100117.94;4978343;28;20042;-63
2022/02/01 09:42:48;;;;;;;12.05;6.05;;;;;;;3.58;81.10;100104.25;4995037;28;20487;-63
2022/02/01 09:45:19;;;;;;;8.32;5.90;;;;;;;3.60;81.49;100109.44;4995116;28;20125;-63
2022/02/01 09:47:53;;;;;;;15.43;5.55;;;;;;;3.61;81.85;100103.50;4993895;28;20031;-64
2022/02/01 09:50:19;;;;;;;12.98;6.88;;;;;;;3.62;81.92;100102.72;4993650;28;20042;-63
2022/02/01 09:52:50;;;;;;;7.13;6.32;;;;;;;3.62;81.32;100095.91;4994643;28;20085;-63
2022/02/01 09:55:23;;;;;;;11.57;6.35;;;;;;;3.62;81.43;100097.56;4977544;28;20046;-63
2022/02/01 09:57:56;;;;;;;9.10;5.78;;;;;;;3.63;81.54;100091.66;4993717;28;20081;-63
2022/02/01 10:00:25;;;;;;;9.90;6.57;;;;;;;3.62;81.25;100101.03;4993704;28;20033;-64
2022/02/01 10:02:55;;;;;;;9.68;5.55;;;;;;;3.64;81.08;100108.78;4976929;28;20146;-64
2022/02/01 10:05:27;;;;;;;10.07;5.55;;;;;;;3.64;81.86;100096.88;4977251;28;20031;-64
2022/02/01 10:07:57;;;;;;;7.70;5.75;;;;;;;3.65;81.77;100085.81;4993180;28;20048;-63
2022/02/01 10:10:29;;;;;;;10.30;5.75;;;;;;;3.65;81.78;100080.69;4994559;28;20068;-63
2022/02/01 10:13:16;;;;;;;7.40;6.20;;;;;;;3.66;82.24;100079.84;4993608;28;20042;-64
2022/02/01 10:16:02;;;;;;;10.98;5.70;;;;;;;3.68;81.44;100086.72;4993042;28;20085;-64
2022/02/01 10:18:32;;;;;;;9.43;5.97;;;;;;;3.69;81.67;100093.59;4994735;28;20093;-63
2022/02/01 10:21:05;;;;;;;8.90;6.03;;;;;;;3.69;81.42;100070.53;4976950;28;20053;-63
2022/02/01 10:23:38;;;;;;;8.40;6.15;;;;;;;3.70;82.29;100072.28;4993255;28;20042;-66
2022/02/01 10:26:06;;;;;;;11.13;7.07;;;;;;;3.70;81.68;100067.16;4994386;28;20039;-63
2022/02/01 10:28:46;;;;;;;13.80;7.28;;;;;;;3.71;81.93;100058.66;4977069;28;20434;-63
2022/02/01 10:31:21;;;;;;;10.90;6.53;;;;;;;3.72;81.54;100062.97;4993639;28;20544;-64
2022/02/01 10:36:21;;;;;;;9.60;5.88;;;;;;;3.73;82.46;100059.59;4992506;28;20038;-63
2022/02/01 10:38:47;;;;;;;13.00;8.68;;;;;;;3.74;81.77;100045.97;4994138;28;20050;-63
2022/02/01 10:41:18;;;;;;;8.57;6.68;;;;;;;3.75;81.56;100046.03;4993937;28;20038;-63
2022/02/01 10:43:46;;;;;;;11.52;6.75;;;;;;;3.77;82.35;100046.13;4993141;28;20041;-63
2022/02/01 10:46:15;;;;;;;9.75;6.82;;;;;;;3.76;82.33;100041.81;4992985;28;20125;-63
2022/02/01 10:48:49;;;;;;;10.13;6.90;;;;;;;3.77;82.47;100017.91;4992699;28;20035;-63
2022/02/01 10:51:21;;;;;;;11.07;7.18;;;;;;;3.80;81.68;100015.50;4994070;28;20042;-63
2022/02/01 10:53:51;;;;;;;9.05;6.35;;;;;;;3.78;82.12;100010.28;4977147;28;20129;-63
2022/02/01 10:56:23;;;;;;;11.75;6.55;;;;;;;3.79;82.23;100012.03;4993136;28;20070;-63
2022/02/01 10:58:51;;;;;;;8.25;6.68;;;;;;;3.81;82.27;100014.69;4976516;28;20073;-63
2022/02/01 11:01:18;;;;;;;8.68;6.38;;;;;;;3.81;81.63;100013.00;4976207;28;20049;-63
2022/02/01 11:03:50;;;;;;;11.45;6.55;;;;;;;3.83;82.40;99999.34;4977047;28;20057;-63
2022/02/01 11:06:16;;;;;;;7.13;6.25;;;;;;;3.83;82.57;99997.66;4976708;28;20048;-63
2022/02/01 11:08:46;;;;;;;7.85;5.93;;;;;;;3.85;82.14;100000.31;4993698;28;20434;-63
2022/02/01 11:11:21;;;;;;;8.70;5.90;;;;;;;3.83;82.10;99982.28;4993862;28;20046;-63
2022/02/01 11:13:50;;;;;;;8.02;6.45;;;;;;;3.85;82.32;99988.34;4976523;28;20093;-63
2022/02/01 11:16:22;;;;;;;7.13;6.18;;;;;;;3.87;82.40;99970.47;4993583;28;20035;-63
2022/02/01 11:19:01;;;;;;;11.88;6.30;;;;;;;3.89;81.94;99963.72;4993792;28;20121;-63
2022/02/01 11:21:28;;;;;;;6.68;5.25;;;;;;;3.87;82.30;99966.22;4976755;28;20070;-63
2022/02/01 11:24:02;;;;;;;5.72;4.53;;;;;;;3.88;82.65;99964.53;4976472;28;20038;-64
2022/02/01 11:26:49;;;;;;;5.95;5.28;;;;;;;3.88;82.37;99955.16;4993500;28;20494;-63
2022/02/01 11:31:53;;;;;;;5.03;4.53;;;;;;;3.90;81.92;99948.41;4993858;28;20526;-64
2022/02/01 11:34:32;;;;;;;5.78;5.18;;;;;;;3.91;82.52;99923.63;4976226;28;20043;-63
2022/02/01 11:37:08;;;;;;;4.82;4.35;;;;;;;3.91;82.57;99916.81;4992427;28;20390;-63
2022/02/01 11:39:50;;;;;;;7.78;4.38;;;;;;;3.92;82.63;99905.75;4993828;28;20468;-63
2022/02/01 11:42:17;;;;;;;4.20;3.60;;;;;;;3.93;82.35;99906.59;4992591;28;20077;-64
2022/02/01 11:44:47;;;;;;;5.80;5.20;;;;;;;3.93;82.40;99907.50;4993388;28;20039;-63
2022/02/01 11:47:32;;;;;;;9.85;4.78;;;;;;;3.95;82.05;99898.19;4975984;28;20562;-64
2022/02/01 11:50:11;;;;;;;4.93;4.40;;;;;;;3.96;82.55;99894.81;4980131;28;20054;-63
2022/02/01 11:52:52;;;;;;;4.15;3.67;;;;;;;3.97;82.42;99893.09;4997367;28;20038;-63
2022/02/01 11:55:19;;;;;;;7.15;4.07;;;;;;;3.98;82.78;99884.59;4979529;28;20097;-63
2022/02/01 11:57:52;;;;;;;4.72;4.32;;;;;;;3.99;82.64;99870.97;4979479;28;20080;-64
2022/02/01 12:00:28;;;;;;;4.93;4.20;;;;;;;3.99;82.41;99883.78;4980250;28;20100;-64
2022/02/01 12:03:00;;;;;;;4.20;3.80;;;;;;;4.00;82.12;99882.97;4995588;28;20494;-64
2022/02/01 12:05:34;;;;;;;5.75;3.97;;;;;;;4.01;82.54;99877.03;4995666;28;20030;-63
2022/02/01 12:08:36;;;;;;;;;;;;;;;4.02;82.79;99877.91;4979877;28;20060;-63
2022/02/01 12:10:58;;;;;;;3.33;2.95;;;;;;;4.01;82.09;99874.47;5008096;28;19917;-63
2022/02/01 12:13:35;;;;;;;4.03;3.60;;;;;;;4.01;82.13;99887.28;4995601;28;20049;-63
2022/02/01 12:16:05;;;;;;;4.45;3.80;;;;;;;4.03;82.15;99887.34;4995711;28;20132;-63
2022/02/01 12:18:46;;;;;;;8.35;4.65;;;;;;;4.04;81.98;99900.25;4995749;28;20042;-64
2022/02/01 12:21:35;;;;;;;4.70;4.30;;;;;;;4.05;82.48;99911.38;4996547;28;20042;-63
2022/02/01 12:24:04;;;;;;;4.57;4.18;;;;;;;4.05;82.06;99903.66;4996643;28;20117;-63
2022/02/01 12:26:42;;;;;;;4.72;4.32;;;;;;;4.05;81.81;99896.84;4995161;28;20498;-63
2022/02/01 12:29:11;;;;;;;6.68;4.18;;;;;;;4.06;82.99;99893.47;4995149;28;20081;-63
2022/02/01 12:31:42;;;;;;;4.93;4.53;;;;;;;4.07;81.75;99900.34;4979170;28;20038;-63
2022/02/01 12:34:15;;;;;;;4.57;4.18;;;;;;;4.09;82.58;99897.84;4995402;28;20042;-62
2022/02/01 12:36:51;;;;;;;5.38;4.40;;;;;;;4.10;82.03;99907.31;4995463;28;20031;-63
2022/02/01 12:39:33;;;;;;;4.57;4.18;;;;;;;4.11;82.10;99888.53;4996325;28;20112;-64
2022/02/01 12:42:12;;;;;;;4.60;4.07;;;;;;;4.11;82.03;99875.72;4979179;28;20035;-63
2022/02/01 12:47:23;;;;;;;5.50;5.00;;;;;;;4.13;82.06;99870.63;4995945;28;20113;-63
2022/02/01 12:49:56;;;;;;;4.97;4.18;;;;;;;4.14;82.62;99869.81;4994897;28;20474;-64
2022/02/01 12:52:34;;;;;;;4.47;4.07;;;;;;;4.15;82.45;99869.00;4995336;28;20121;-64
2022/02/01 12:55:06;;;;;;;4.20;3.80;;;;;;;4.15;82.07;99867.31;4995146;28;20050;-64
2022/02/01 12:57:43;;;;;;;5.18;4.68;;;;;;;4.15;82.03;99858.75;4995706;28;20394;-64
2022/02/01 13:00:14;;;;;;;5.45;4.57;;;;;;;4.15;82.57;99862.16;4995431;28;20585;-64
2022/02/01 13:02:48;;;;;;;5.72;4.50;;;;;;;4.17;81.76;99860.53;4977933;28;20053;-63
2022/02/01 13:05:20;;;;;;;5.13;4.63;;;;;;;4.17;82.62;99860.53;4978536;28;20038;-63
2022/02/01 13:16:19;;;;;;;4.10;3.70;;;;;;;4.19;81.77;99819.56;4994749;28;20042;-64
2022/02/01 13:21:39;;;;;;;4.57;4.18;;;;;;;4.19;82.34;99823.00;4995356;28;20520;-65
2022/02/01 13:24:06;;;;;;;4.32;3.92;;;;;;;4.19;82.45;99822.16;4994246;28;20410;-65
2022/02/01 13:26:37;;;;;;;6.47;4.55;;;;;;;4.20;81.83;99823.91;4994044;28;20121;-64